Time;durP1;ratioP1;P1;durP2;ratioP2;P2;SDS_P1;SDS_P2;PMS_P1;PMS_P2;Temp;Humidity;BMP_temperature;BMP_pressure;BME280_temperature;BME280_humidity;BME280_pressure;Samples;Min_cycle;Max_cycle;Signal;HPM_P1;HPM_P2
2022/11/12 00:00:01;;;;;;;16.20;9.45;;;7.90;99.90;;;;;;5119135;27;20513;-75
2022/11/12 00:02:26;;;;;;;15.80;9.45;;;7.80;99.90;;;;;;5082655;27;20408;-75
2022/11/12 00:04:52;;;;;;;15.48;9.60;;;7.80;99.90;;;;;;5131100;27;20406;-76
2022/11/12 00:07:18;;;;;;;14.17;9.90;;;7.80;99.90;;;;;;5131001;27;20398;-76
2022/11/12 00:09:43;;;;;;;17.38;10.10;;;7.80;99.90;;;;;;5130542;27;20386;-75
2022/11/12 00:12:09;;;;;;;13.10;9.20;;;7.80;99.90;;;;;;5129855;27;20422;-75
2022/11/12 00:14:34;;;;;;;14.88;9.80;;;7.70;99.90;;;;;;5103958;28;20408;-76
2022/11/12 00:17:01;;;;;;;13.93;9.73;;;7.70;99.90;;;;;;5124729;27;21359;-75
2022/11/12 00:19:26;;;;;;;17.15;10.50;;;7.70;99.90;;;;;;5130645;27;20424;-76
2022/11/12 00:21:52;;;;;;;18.50;10.10;;;7.70;99.90;;;;;;5099459;27;20396;-75
2022/11/12 00:24:17;;;;;;;14.90;10.10;;;7.70;99.90;;;;;;5118874;27;20402;-75
2022/11/12 00:26:43;;;;;;;16.42;10.55;;;7.60;99.90;;;;;;5107617;27;20460;-76
2022/11/12 00:29:09;;;;;;;16.97;10.93;;;7.60;99.90;;;;;;5128534;27;20402;-75
2022/11/12 00:31:34;;;;;;;14.95;10.32;;;7.60;99.90;;;;;;5095303;27;20410;-76
2022/11/12 00:34:00;;;;;;;16.80;10.47;;;7.60;99.90;;;;;;5130529;27;20404;-75
2022/11/12 00:36:26;;;;;;;17.35;10.85;;;7.60;99.90;;;;;;5116842;27;20758;-75
2022/11/12 00:38:51;;;;;;;17.27;10.05;;;7.60;99.90;;;;;;5120637;27;20481;-75
2022/11/12 00:41:17;;;;;;;16.13;10.27;;;7.60;99.90;;;;;;5093486;27;20403;-75
2022/11/12 00:43:42;;;;;;;14.95;9.82;;;7.50;99.90;;;;;;5129747;27;20926;-75
2022/11/12 00:46:08;;;;;;;15.37;9.90;;;7.50;99.90;;;;;;5119194;27;20804;-75
2022/11/12 00:48:34;;;;;;;16.30;11.15;;;7.50;99.90;;;;;;5105224;28;20412;-75
2022/11/12 00:51:04;;;;;;;16.07;10.33;;;7.50;99.90;;;;;;5126861;27;20406;-75
2022/11/12 00:53:30;;;;;;;17.23;11.00;;;7.50;99.90;;;;;;5103836;28;20434;-75
2022/11/12 00:56:05;;;;;;;16.55;10.30;;;7.50;99.90;;;;;;5095827;27;20409;-76
2022/11/12 00:58:33;;;;;;;16.25;10.05;;;7.50;99.90;;;;;;5129580;27;20413;-75
2022/11/12 01:01:07;;;;;;;15.07;10.80;;;7.50;99.90;;;;;;5129071;27;20473;-76
2022/11/12 01:03:33;;;;;;;16.58;11.48;;;7.40;99.90;;;;;;5130457;27;20399;-75
2022/11/12 01:06:04;;;;;;;16.53;11.23;;;7.40;99.90;;;;;;5090524;28;20403;-75
2022/11/12 01:08:29;;;;;;;15.60;10.93;;;7.40;99.90;;;;;;5120691;27;20402;-75
2022/11/12 01:10:55;;;;;;;17.40;10.90;;;7.30;99.90;;;;;;5116836;27;20480;-75
2022/11/12 01:13:21;;;;;;;14.60;10.67;;;7.30;99.90;;;;;;5129641;27;20422;-75
2022/11/12 01:15:46;;;;;;;17.03;11.13;;;7.30;99.90;;;;;;5130069;27;20398;-75
2022/11/12 01:18:12;;;;;;;18.43;11.97;;;7.30;99.90;;;;;;5129197;27;20842;-75
2022/11/12 01:20:38;;;;;;;15.97;11.53;;;7.30;99.90;;;;;;5114225;27;20392;-75
2022/11/12 01:23:04;;;;;;;16.97;11.17;;;7.30;99.90;;;;;;5090815;28;20400;-75
2022/11/12 01:25:30;;;;;;;17.75;11.32;;;7.30;99.90;;;;;;5105119;28;20411;-75
2022/11/12 01:27:56;;;;;;;17.70;11.60;;;7.30;99.90;;;;;;5101639;27;20761;-75
2022/11/12 01:30:22;;;;;;;16.27;11.18;;;7.30;99.90;;;;;;5106505;28;20408;-75
2022/11/12 01:32:48;;;;;;;17.90;11.53;;;7.20;99.90;;;;;;5111253;27;20925;-75
2022/11/12 01:35:13;;;;;;;17.15;12.00;;;7.30;99.90;;;;;;5125755;27;20406;-75
2022/11/12 01:37:39;;;;;;;18.20;11.63;;;7.20;99.90;;;;;;5119890;27;20894;-75
2022/11/12 01:40:05;;;;;;;15.73;11.30;;;7.20;99.90;;;;;;5124772;27;21966;-75
2022/11/12 01:42:31;;;;;;;16.20;11.70;;;7.20;99.90;;;;;;5109473;27;20926;-75
2022/11/12 01:44:57;;;;;;;19.13;11.77;;;7.20;99.90;;;;;;5129217;27;20481;-75
2022/11/12 01:47:29;;;;;;;16.90;11.90;;;7.20;99.90;;;;;;5125251;27;20469;-75
2022/11/12 01:50:19;;;;;;;18.98;12.32;;;7.10;99.90;;;;;;5107707;28;20409;-75
2022/11/12 01:52:51;;;;;;;20.33;12.15;;;7.10;99.90;;;;;;5091831;28;20511;-75
2022/11/12 01:55:21;;;;;;;17.00;12.25;;;7.10;99.90;;;;;;5090735;28;20409;-75
2022/11/12 01:57:53;;;;;;;18.33;11.97;;;7.10;99.90;;;;;;5113303;27;20506;-75
2022/11/12 02:00:19;;;;;;;18.20;11.93;;;7.10;99.90;;;;;;5136378;27;20406;-75
2022/11/12 02:02:52;;;;;;;18.58;12.65;;;7.00;99.90;;;;;;5122756;27;20396;-75
2022/11/12 02:05:19;;;;;;;20.65;13.40;;;7.00;99.90;;;;;;5115464;27;20974;-75
2022/11/12 02:07:46;;;;;;;18.50;13.23;;;7.00;99.90;;;;;;5112529;28;20917;-75
2022/11/12 02:10:13;;;;;;;17.98;12.90;;;7.00;99.90;;;;;;5120515;27;20782;-75
2022/11/12 02:15:25;;;;;;;19.40;12.98;;;7.00;99.90;;;;;;5120343;27;20917;-75
2022/11/12 02:17:50;;;;;;;17.55;12.73;;;7.00;99.90;;;;;;5115704;27;20472;-75
2022/11/12 02:20:17;;;;;;;19.17;13.40;;;6.90;99.90;;;;;;5134365;27;20442;-75
2022/11/12 02:22:43;;;;;;;18.48;13.98;;;6.90;99.90;;;;;;5134368;27;20421;-75
2022/11/12 02:25:13;;;;;;;20.00;14.05;;;6.90;99.90;;;;;;5101986;28;20877;-75
2022/11/12 02:27:39;;;;;;;19.40;13.05;;;6.90;99.90;;;;;;5126926;27;20951;-75
2022/11/12 02:30:05;;;;;;;18.90;12.97;;;6.90;99.90;;;;;;5123919;27;20386;-75
2022/11/12 02:32:30;;;;;;;20.67;13.40;;;6.90;99.90;;;;;;5119303;27;20435;-75
2022/11/12 02:34:56;;;;;;;19.97;13.20;;;6.80;99.90;;;;;;5096288;28;20743;-75
2022/11/12 02:37:21;;;;;;;20.65;13.63;;;6.80;99.90;;;;;;5079407;27;20407;-75
2022/11/12 02:39:47;;;;;;;20.73;13.73;;;6.80;99.90;;;;;;5126954;27;20402;-76
2022/11/12 02:42:13;;;;;;;20.10;13.60;;;6.80;99.90;;;;;;5111318;27;20419;-75
2022/11/12 02:44:38;;;;;;;21.42;14.80;;;6.70;99.90;;;;;;5116394;27;20399;-75
2022/11/12 02:47:04;;;;;;;22.30;15.10;;;6.70;99.90;;;;;;5102548;27;20831;-75
2022/11/12 02:49:30;;;;;;;22.27;14.90;;;6.70;99.90;;;;;;5120875;27;20419;-75
2022/11/12 02:51:55;;;;;;;21.92;15.07;;;6.80;99.90;;;;;;5133943;27;20772;-75
2022/11/12 02:54:21;;;;;;;21.77;14.57;;;6.70;99.90;;;;;;5125688;27;20415;-75
2022/11/12 02:56:46;;;;;;;20.45;14.10;;;6.70;99.90;;;;;;5113069;27;20431;-75
2022/11/12 02:59:12;;;;;;;25.20;16.17;;;6.70;99.90;;;;;;5112399;28;21140;-75
2022/11/12 03:01:37;;;;;;;23.52;15.93;;;6.70;99.90;;;;;;5128070;27;20395;-75
2022/11/12 03:04:03;;;;;;;23.03;15.87;;;6.70;99.90;;;;;;5115573;27;20808;-75
2022/11/12 03:06:29;;;;;;;22.50;15.63;;;6.70;99.90;;;;;;5123975;27;20517;-75
2022/11/12 03:08:54;;;;;;;24.95;15.45;;;6.60;99.90;;;;;;5099439;27;21015;-75
2022/11/12 03:11:20;;;;;;;23.93;16.00;;;6.60;99.90;;;;;;5100469;27;20409;-75
2022/11/12 03:13:45;;;;;;;24.02;15.95;;;6.60;99.90;;;;;;5112461;27;21169;-75
2022/11/12 03:16:11;;;;;;;21.80;14.83;;;6.60;99.90;;;;;;5110718;27;20403;-75
2022/11/12 03:18:37;;;;;;;26.40;16.03;;;6.60;99.90;;;;;;5108251;28;20396;-75
2022/11/12 03:21:03;;;;;;;22.52;16.48;;;6.60;99.90;;;;;;5108368;27;20959;-75
2022/11/12 03:23:29;;;;;;;26.83;17.05;;;6.60;99.90;;;;;;5108370;28;20412;-76
2022/11/12 03:25:55;;;;;;;24.38;16.65;;;6.60;99.90;;;;;;5125159;27;20451;-75
2022/11/12 03:28:20;;;;;;;22.67;15.82;;;6.60;99.90;;;;;;5129261;27;20414;-75
2022/11/12 03:30:46;;;;;;;24.90;16.70;;;6.60;99.90;;;;;;5127132;27;20410;-75
2022/11/12 03:33:13;;;;;;;24.73;16.90;;;6.60;99.90;;;;;;5130476;27;20427;-76
2022/11/12 03:35:39;;;;;;;25.30;16.80;;;6.60;99.90;;;;;;5126708;27;20390;-75
2022/11/12 03:38:05;;;;;;;26.27;17.27;;;6.60;99.90;;;;;;5112328;27;21157;-75
2022/11/12 03:40:32;;;;;;;26.38;17.38;;;6.50;99.90;;;;;;5130665;27;20457;-75
2022/11/12 03:42:57;;;;;;;26.42;17.90;;;6.50;99.90;;;;;;5105766;28;20412;-75
2022/11/12 03:45:25;;;;;;;26.50;17.20;;;6.50;99.90;;;;;;5122823;27;20409;-75
2022/11/12 03:47:53;;;;;;;29.02;18.58;;;6.50;99.90;;;;;;5117302;27;20391;-75
2022/11/12 03:50:22;;;;;;;26.80;18.10;;;6.50;99.90;;;;;;5106572;27;20405;-75
2022/11/12 03:52:50;;;;;;;25.85;17.63;;;6.50;99.90;;;;;;5130380;27;20449;-75
2022/11/12 03:55:18;;;;;;;26.27;18.27;;;6.50;99.90;;;;;;5109814;27;20403;-76
2022/11/12 03:57:44;;;;;;;26.30;18.42;;;6.50;99.90;;;;;;5105085;28;20404;-75
2022/11/12 04:00:10;;;;;;;27.83;19.45;;;6.40;99.90;;;;;;5125719;27;20410;-75
2022/11/12 04:02:36;;;;;;;30.38;18.92;;;6.50;99.90;;;;;;5110964;27;20443;-75
2022/11/12 04:10:54;;;;;;;27.75;18.15;;;6.40;99.90;;;;;;5110831;27;20414;-75
2022/11/12 04:13:26;;;;;;;26.27;18.35;;;6.40;99.90;;;;;;5130792;27;20433;-75
2022/11/12 04:21:55;;;;;;;28.00;19.00;;;6.40;99.90;;;;;;5088325;28;20415;-75
2022/11/12 04:27:20;;;;;;;24.83;18.50;;;6.30;99.90;;;;;;5124366;27;20436;-75
2022/11/12 04:32:34;;;;;;;29.10;20.05;;;6.30;99.90;;;;;;5110175;27;20602;-75
2022/11/12 04:35:00;;;;;;;29.48;19.23;;;6.20;99.90;;;;;;5111647;27;20413;-75
2022/11/12 04:37:28;;;;;;;28.23;19.30;;;6.20;99.90;;;;;;5097913;27;20404;-75
2022/11/12 04:39:54;;;;;;;28.90;19.17;;;6.20;99.90;;;;;;5093295;28;20491;-75
2022/11/12 04:45:09;;;;;;;28.73;19.67;;;6.10;99.90;;;;;;5120233;27;20410;-75
2022/11/12 04:47:38;;;;;;;30.35;20.15;;;6.10;99.90;;;;;;5129625;27;20395;-75
2022/11/12 04:50:11;;;;;;;28.90;19.45;;;6.10;99.90;;;;;;5111274;27;20398;-75
2022/11/12 04:52:37;;;;;;;26.93;18.13;;;6.10;99.90;;;;;;5107903;28;20521;-75
2022/11/12 04:55:03;;;;;;;30.20;19.52;;;6.00;99.90;;;;;;5111437;27;20495;-74
2022/11/12 04:57:28;;;;;;;33.42;21.38;;;6.00;99.90;;;;;;5115777;27;20502;-75
2022/11/12 04:59:54;;;;;;;32.08;20.75;;;6.00;99.90;;;;;;5111506;27;20827;-75
2022/11/12 05:02:20;;;;;;;32.60;21.23;;;6.10;99.90;;;;;;5108251;28;20412;-75
2022/11/12 05:04:46;;;;;;;31.52;21.73;;;6.10;99.90;;;;;;5107076;28;20453;-75
2022/11/12 05:07:11;;;;;;;31.50;20.48;;;6.10;99.90;;;;;;5126574;27;20907;-75
2022/11/12 05:09:38;;;;;;;30.60;21.25;;;6.10;99.90;;;;;;5107136;27;20400;-75
2022/11/12 05:12:03;;;;;;;34.53;21.95;;;6.00;99.90;;;;;;5111743;27;20420;-75
2022/11/12 05:14:29;;;;;;;34.47;22.10;;;6.10;99.90;;;;;;5115964;27;20565;-75
2022/11/12 05:16:54;;;;;;;34.60;22.37;;;6.10;99.90;;;;;;5129884;27;20439;-75
2022/11/12 05:19:20;;;;;;;28.57;19.60;;;6.00;99.90;;;;;;5128339;27;20802;-75
2022/11/12 05:22:04;;;;;;;29.10;19.77;;;6.00;99.90;;;;;;5111216;27;20412;-75
2022/11/12 05:24:35;;;;;;;31.02;20.45;;;6.00;99.90;;;;;;5125536;27;20819;-75
2022/11/12 05:27:01;;;;;;;30.65;19.65;;;5.90;99.90;;;;;;5129015;27;20478;-75
2022/11/12 05:29:27;;;;;;;32.07;21.40;;;5.90;99.90;;;;;;5129841;27;20756;-75
2022/11/12 05:31:52;;;;;;;29.80;21.20;;;5.90;99.90;;;;;;5107278;28;20427;-75
2022/11/12 05:34:18;;;;;;;29.92;20.90;;;5.80;99.90;;;;;;5108122;27;20473;-75
2022/11/12 05:36:44;;;;;;;29.95;20.17;;;5.80;99.90;;;;;;5121187;27;20491;-75
2022/11/12 05:39:09;;;;;;;35.53;24.23;;;5.80;99.90;;;;;;5124532;27;20404;-75
2022/11/12 05:41:35;;;;;;;34.05;22.85;;;5.80;99.90;;;;;;5106904;27;20806;-75
2022/11/12 05:44:00;;;;;;;37.07;24.07;;;5.80;99.90;;;;;;5097149;27;20408;-75
2022/11/12 05:46:26;;;;;;;32.97;23.27;;;5.80;99.90;;;;;;5129380;27;20947;-75
2022/11/12 05:48:52;;;;;;;32.85;21.75;;;5.80;99.90;;;;;;5129281;27;20398;-75
2022/11/12 05:51:17;;;;;;;35.20;23.27;;;5.80;99.90;;;;;;5106998;28;20762;-75
2022/11/12 05:53:43;;;;;;;34.13;22.83;;;5.80;99.90;;;;;;5123545;28;20501;-75
2022/11/12 05:56:10;;;;;;;33.60;22.47;;;5.80;99.90;;;;;;5111112;28;20396;-75
2022/11/12 05:58:36;;;;;;;36.00;23.35;;;5.80;99.90;;;;;;5125747;28;20396;-75
2022/11/12 06:01:02;;;;;;;35.78;23.60;;;5.80;99.90;;;;;;5089260;28;20921;-75
2022/11/12 06:03:28;;;;;;;34.20;22.58;;;5.70;99.90;;;;;;5112243;28;20398;-75
2022/11/12 06:05:54;;;;;;;31.55;21.00;;;5.70;99.90;;;;;;5100613;28;20437;-75
2022/11/12 06:08:19;;;;;;;34.10;22.50;;;5.70;99.90;;;;;;5098397;28;20947;-76
2022/11/12 06:10:50;;;;;;;38.70;23.60;;;5.70;99.90;;;;;;5121138;28;20460;-75
2022/11/12 06:13:15;;;;;;;36.93;23.20;;;5.70;99.90;;;;;;5124980;28;20460;-76
2022/11/12 06:15:41;;;;;;;37.23;23.13;;;5.70;99.90;;;;;;5110953;28;20443;-75
2022/11/12 06:18:07;;;;;;;35.33;21.95;;;5.60;99.90;;;;;;5125296;28;21028;-75
2022/11/12 06:20:34;;;;;;;35.38;24.02;;;5.60;99.90;;;;;;5128151;28;20391;-75
2022/11/12 06:23:00;;;;;;;41.17;24.48;;;5.60;99.90;;;;;;5103052;28;20801;-75
2022/11/12 06:25:26;;;;;;;36.33;22.75;;;5.60;99.90;;;;;;5118968;28;20455;-75
2022/11/12 06:27:52;;;;;;;35.33;22.25;;;5.60;99.90;;;;;;5127711;28;20398;-75
2022/11/12 06:30:18;;;;;;;34.65;22.17;;;5.60;99.90;;;;;;5125125;28;20906;-75
2022/11/12 06:32:47;;;;;;;29.10;19.67;;;5.50;99.90;;;;;;5125804;28;20488;-75
2022/11/12 06:35:14;;;;;;;34.00;21.58;;;5.50;99.90;;;;;;5121742;28;20394;-75
2022/11/12 06:37:40;;;;;;;36.90;22.73;;;5.50;99.90;;;;;;5106588;28;20411;-75
2022/11/12 06:40:06;;;;;;;34.22;21.13;;;5.50;99.90;;;;;;5127817;28;20406;-75
2022/11/12 06:42:32;;;;;;;29.85;21.50;;;5.50;99.90;;;;;;5125525;27;20397;-75
2022/11/12 06:44:57;;;;;;;29.55;19.33;;;5.50;99.90;;;;;;5112575;28;21210;-77
2022/11/12 06:47:23;;;;;;;29.37;20.00;;;5.40;99.90;;;;;;5126135;27;20405;-75
2022/11/12 06:49:49;;;;;;;30.27;20.33;;;5.40;99.90;;;;;;5132006;27;20481;-75
2022/11/12 06:52:14;;;;;;;28.55;19.50;;;5.40;99.90;;;;;;5132876;27;20452;-75
2022/11/12 06:54:40;;;;;;;29.90;19.33;;;5.40;99.90;;;;;;5131828;27;20394;-75
2022/11/12 06:57:06;;;;;;;30.85;19.77;;;5.40;99.90;;;;;;5132086;27;20551;-75
2022/11/12 06:59:31;;;;;;;29.52;18.75;;;5.40;99.90;;;;;;5097376;27;20409;-75
2022/11/12 07:01:57;;;;;;;24.50;17.00;;;5.40;99.90;;;;;;5113491;27;20402;-75
2022/11/12 07:04:23;;;;;;;29.00;19.65;;;5.30;99.90;;;;;;5126004;27;20784;-75
2022/11/12 07:06:49;;;;;;;28.75;19.48;;;5.30;99.90;;;;;;5131255;27;20937;-75
2022/11/12 07:09:15;;;;;;;27.70;18.20;;;5.30;99.90;;;;;;5132410;27;20395;-75
2022/11/12 07:11:41;;;;;;;24.43;17.07;;;5.30;99.90;;;;;;5131429;27;20391;-75
2022/11/12 07:14:07;;;;;;;28.65;18.38;;;5.40;99.90;;;;;;5122406;27;20412;-75
2022/11/12 07:16:32;;;;;;;26.33;17.77;;;5.30;99.90;;;;;;5126926;27;20407;-75
2022/11/12 07:18:58;;;;;;;25.58;17.10;;;5.30;99.90;;;;;;5131932;27;20433;-75
2022/11/12 07:21:24;;;;;;;26.30;17.52;;;5.30;99.90;;;;;;5131671;27;20399;-75
2022/11/12 07:23:49;;;;;;;27.60;16.60;;;5.30;99.90;;;;;;5109847;28;20400;-75
2022/11/12 07:26:20;;;;;;;25.77;17.80;;;5.30;99.90;;;;;;5115519;27;20390;-75
2022/11/12 07:28:51;;;;;;;25.63;17.00;;;5.30;99.90;;;;;;5131620;27;20395;-75
2022/11/12 07:31:18;;;;;;;22.73;16.20;;;5.30;99.90;;;;;;5131190;27;20406;-75
2022/11/12 07:33:47;;;;;;;25.88;16.55;;;5.30;99.90;;;;;;5120195;27;20789;-75
2022/11/12 07:36:17;;;;;;;22.27;16.00;;;5.30;99.90;;;;;;5125024;27;20405;-75
2022/11/12 07:38:43;;;;;;;24.52;16.95;;;5.30;99.90;;;;;;5102840;28;20945;-75
2022/11/12 07:41:15;;;;;;;29.58;17.80;;;5.30;99.90;;;;;;5108521;27;20420;-75
2022/11/12 07:43:44;;;;;;;28.60;17.83;;;5.30;99.90;;;;;;5099628;28;20459;-75
2022/11/12 07:46:18;;;;;;;26.57;16.70;;;5.40;99.90;;;;;;5124091;27;20400;-76
2022/11/12 07:48:45;;;;;;;26.20;17.05;;;5.40;99.90;;;;;;5105393;27;20408;-75
2022/11/12 07:51:12;;;;;;;27.85;16.92;;;5.40;99.90;;;;;;5123269;27;20392;-75
2022/11/12 07:53:38;;;;;;;26.67;17.47;;;5.50;99.90;;;;;;5075753;27;20945;-75
2022/11/12 07:56:04;;;;;;;27.33;17.47;;;5.60;99.90;;;;;;5096623;28;20443;-75
2022/11/12 07:58:31;;;;;;;31.47;17.57;;;5.70;99.90;;;;;;5112276;27;20483;-74
2022/11/12 08:00:57;;;;;;;27.15;17.25;;;5.80;99.90;;;;;;5103914;28;20505;-74
2022/11/12 08:03:23;;;;;;;28.67;17.60;;;5.80;99.90;;;;;;5109978;27;20484;-74
2022/11/12 08:05:50;;;;;;;30.53;17.63;;;5.90;99.90;;;;;;5127219;27;20497;-74
2022/11/12 08:08:15;;;;;;;26.48;16.65;;;6.00;99.90;;;;;;5128901;27;21000;-74
2022/11/12 08:10:41;;;;;;;27.03;17.90;;;6.00;99.90;;;;;;5111133;27;20491;-74
2022/11/12 08:13:07;;;;;;;26.20;16.87;;;6.10;99.90;;;;;;5126025;27;20455;-74
2022/11/12 08:15:32;;;;;;;29.02;17.60;;;6.20;99.90;;;;;;5091952;28;20462;-74
2022/11/12 08:17:58;;;;;;;39.23;18.30;;;6.20;99.90;;;;;;5125465;27;20451;-74
2022/11/12 08:20:23;;;;;;;38.60;19.23;;;6.30;99.90;;;;;;5130800;27;20406;-74
2022/11/12 08:22:49;;;;;;;59.40;21.73;;;6.30;99.90;;;;;;5118387;27;20755;-74
2022/11/12 08:25:15;;;;;;;64.47;22.23;;;6.40;99.90;;;;;;5119941;27;20482;-74
2022/11/12 08:27:41;;;;;;;89.68;24.90;;;6.40;99.90;;;;;;5106283;27;20814;-76
2022/11/12 08:30:07;;;;;;;89.87;25.93;;;6.40;99.90;;;;;;5104497;27;20416;-76
2022/11/12 08:32:33;;;;;;;82.97;25.45;;;6.40;99.90;;;;;;5128693;27;20449;-75
2022/11/12 08:34:59;;;;;;;88.28;25.50;;;6.50;99.90;;;;;;5127325;27;20402;-75
2022/11/12 08:37:25;;;;;;;79.65;26.38;;;6.60;99.90;;;;;;5120576;27;20407;-75
2022/11/12 08:39:51;;;;;;;106.10;28.98;;;6.60;99.90;;;;;;5120505;27;20410;-76
2022/11/12 08:42:16;;;;;;;112.43;30.40;;;6.70;99.90;;;;;;5128674;27;20395;-76
2022/11/12 08:44:42;;;;;;;166.07;36.67;;;6.70;99.90;;;;;;5127884;27;20410;-75
2022/11/12 08:47:07;;;;;;;127.00;32.63;;;6.70;99.90;;;;;;5121804;27;20466;-75
2022/11/12 08:49:33;;;;;;;154.93;36.80;;;6.80;99.90;;;;;;5127768;27;20398;-75
2022/11/12 08:51:59;;;;;;;92.82;31.50;;;6.80;99.90;;;;;;5125046;27;20390;-76
2022/11/12 08:54:24;;;;;;;126.83;34.23;;;6.80;99.90;;;;;;5110414;27;20709;-76
2022/11/12 08:56:50;;;;;;;115.47;33.88;;;6.80;99.90;;;;;;5128676;27;20403;-75
2022/11/12 08:59:16;;;;;;;99.22;32.42;;;6.80;99.90;;;;;;5106233;27;20415;-75
2022/11/12 09:01:42;;;;;;;115.47;33.57;;;6.80;99.90;;;;;;5128648;27;20399;-75
2022/11/12 09:04:07;;;;;;;132.88;35.97;;;6.90;99.90;;;;;;5127532;27;20752;-76
2022/11/12 09:06:33;;;;;;;78.33;30.93;;;6.90;99.90;;;;;;5120676;27;20881;-76
2022/11/12 09:08:58;;;;;;;92.73;32.70;;;6.90;99.90;;;;;;5125708;27;20454;-76
2022/11/12 09:11:24;;;;;;;128.80;35.05;;;7.00;99.90;;;;;;5119766;27;20392;-74
2022/11/12 09:13:52;;;;;;;113.63;32.30;;;7.00;99.90;;;;;;5125806;27;20459;-76
2022/11/12 09:16:17;;;;;;;150.10;34.85;;;7.10;99.90;;;;;;5108226;28;20400;-76
2022/11/12 09:18:43;;;;;;;136.20;32.70;;;7.10;99.90;;;;;;5125228;27;20418;-76
2022/11/12 09:21:12;;;;;;;100.57;28.07;;;7.20;99.90;;;;;;5129576;27;20414;-76
2022/11/12 09:23:38;;;;;;;110.88;30.52;;;7.30;99.90;;;;;;5124848;27;20391;-73
2022/11/12 09:26:04;;;;;;;117.32;29.75;;;7.30;99.90;;;;;;5118981;27;20402;-75
2022/11/12 09:28:30;;;;;;;156.73;30.95;;;7.40;99.90;;;;;;5120037;27;20415;-75
2022/11/12 09:30:56;;;;;;;161.65;32.75;;;7.40;99.90;;;;;;5078949;27;20428;-75
2022/11/12 09:33:29;;;;;;;194.45;33.78;;;7.50;99.90;;;;;;5106607;28;20489;-75
2022/11/12 09:35:55;;;;;;;153.40;31.58;;;7.60;99.90;;;;;;5116149;27;20811;-75
2022/11/12 09:38:21;;;;;;;165.98;31.80;;;7.60;99.90;;;;;;5123554;27;20788;-75
2022/11/12 09:41:07;;;;;;;148.43;30.95;;;7.60;99.90;;;;;;5125602;27;20430;-76
2022/11/12 09:43:38;;;;;;;129.90;29.97;;;7.60;99.90;;;;;;5095850;27;20491;-76
2022/11/12 09:46:22;;;;;;;155.02;31.65;;;7.70;99.90;;;;;;5125998;27;20824;-75
2022/11/12 09:48:56;;;;;;;107.43;29.23;;;7.70;99.90;;;;;;5119562;27;20519;-76
2022/11/12 09:51:27;;;;;;;135.30;31.87;;;7.70;99.90;;;;;;5125640;27;20746;-75
2022/11/12 09:53:57;;;;;;;114.85;30.25;;;7.80;99.90;;;;;;5126833;27;20437;-75
2022/11/12 09:56:24;;;;;;;149.38;32.08;;;7.80;99.90;;;;;;5128923;28;20424;-76
2022/11/12 09:58:51;;;;;;;147.98;31.95;;;7.90;99.90;;;;;;5124514;28;20412;-75
2022/11/12 10:01:34;;;;;;;153.95;32.75;;;7.90;99.90;;;;;;5114116;28;20396;-75
2022/11/12 10:04:09;;;;;;;223.47;36.20;;;8.00;99.90;;;;;;5106625;28;20440;-74
2022/11/12 10:06:46;;;;;;;195.63;35.97;;;8.10;99.90;;;;;;5103846;28;20434;-76
2022/11/12 10:09:21;;;;;;;219.90;38.50;;;8.10;99.90;;;;;;5118468;28;20490;-75
2022/11/12 10:12:33;;;;;;;202.97;37.60;;;8.20;99.90;;;;;;5127175;28;20493;-75
2022/11/12 10:18:31;;;;;;;194.85;35.15;;;8.30;99.90;;;;;;5109256;28;20420;-75
2022/11/12 10:21:05;;;;;;;213.07;36.90;;;8.30;99.90;;;;;;5106632;28;20412;-76
2022/11/12 10:23:42;;;;;;;200.63;37.72;;;8.30;99.90;;;;;;5131047;27;20919;-76
2022/11/12 10:26:16;;;;;;;169.77;35.25;;;8.30;99.90;;;;;;5113650;27;20410;-76
2022/11/12 10:28:58;;;;;;;203.02;36.35;;;8.30;99.90;;;;;;5133034;27;20399;-76
2022/11/12 10:31:24;;;;;;;160.35;35.10;;;8.30;99.90;;;;;;5113393;27;20975;-76
2022/11/12 10:33:49;;;;;;;188.47;35.57;;;8.40;99.90;;;;;;5122783;27;20430;-76
2022/11/12 10:36:19;;;;;;;167.98;34.90;;;8.40;99.90;;;;;;5119108;27;20433;-75
2022/11/12 10:38:48;;;;;;;148.57;32.53;;;8.50;99.90;;;;;;5109919;28;20495;-75
2022/11/12 10:41:21;;;;;;;149.50;32.58;;;8.50;99.90;;;;;;5095779;27;20422;-75
2022/11/12 10:44:01;;;;;;;141.25;32.85;;;8.60;99.90;;;;;;5091493;28;20413;-75
2022/11/12 10:46:30;;;;;;;131.47;29.93;;;8.60;99.90;;;;;;5124978;27;20413;-75
2022/11/12 10:49:02;;;;;;;145.70;31.88;;;8.60;99.90;;;;;;5131731;27;20411;-75
2022/11/12 10:51:33;;;;;;;175.53;34.50;;;8.70;99.90;;;;;;5128803;27;20501;-74
2022/11/12 10:54:28;;;;;;;160.48;33.00;;;8.70;99.90;;;;;;5128152;27;20437;-75
2022/11/12 10:56:54;;;;;;;174.45;35.35;;;8.70;99.90;;;;;;5108638;27;20426;-76
2022/11/12 10:59:24;;;;;;;187.73;35.83;;;8.70;99.90;;;;;;5107957;28;20951;-76
2022/11/12 11:01:56;;;;;;;187.60;35.67;;;8.80;99.90;;;;;;5108254;27;20418;-76
2022/11/12 11:04:34;;;;;;;169.30;35.45;;;8.80;99.90;;;;;;5130713;27;20421;-76
2022/11/12 11:07:15;;;;;;;178.38;33.15;;;8.80;99.90;;;;;;5121240;27;20414;-76
2022/11/12 11:09:59;;;;;;;241.50;37.03;;;8.80;99.90;;;;;;5125897;27;20414;-76
2022/11/12 11:12:29;;;;;;;169.23;35.22;;;8.80;99.90;;;;;;5129302;27;20780;-75
2022/11/12 11:15:07;;;;;;;190.35;37.47;;;8.80;99.90;;;;;;5108906;28;20424;-75
2022/11/12 11:17:33;;;;;;;172.00;35.87;;;8.80;99.90;;;;;;5088645;27;20471;-75
2022/11/12 11:20:00;;;;;;;152.10;34.25;;;8.80;99.90;;;;;;5121220;27;20444;-76
2022/11/12 11:22:38;;;;;;;142.75;35.92;;;8.80;99.90;;;;;;5131193;27;20504;-76
2022/11/12 11:25:27;;;;;;;165.27;36.60;;;8.80;99.90;;;;;;5110786;27;20422;-76
2022/11/12 11:28:25;;;;;;;144.82;36.15;;;8.70;99.90;;;;;;5120234;27;20461;-76
2022/11/12 11:30:57;;;;;;;154.20;38.58;;;8.70;99.90;;;;;;5073924;27;20426;-75
2022/11/12 11:33:37;;;;;;;133.25;37.80;;;8.70;99.90;;;;;;5124524;27;20438;-76
2022/11/12 11:36:20;;;;;;;124.50;37.72;;;8.70;99.90;;;;;;5129747;27;20422;-76
2022/11/12 11:39:04;;;;;;;154.48;39.20;;;8.70;99.90;;;;;;5129589;27;21608;-75
2022/11/12 11:41:38;;;;;;;142.57;39.80;;;8.80;99.90;;;;;;5092855;28;21004;-75
2022/11/12 11:44:14;;;;;;;178.40;40.55;;;8.80;99.90;;;;;;5097134;28;20931;-75
2022/11/12 11:47:12;;;;;;;165.53;40.53;;;8.80;99.90;;;;;;5103988;28;20506;-76
2022/11/12 11:50:26;;;;;;;155.23;41.20;;;8.80;99.90;;;;;;5079137;28;20761;-75
2022/11/12 11:53:18;;;;;;;152.65;39.63;;;8.80;99.90;;;;;;5043115;28;20468;-73
2022/11/12 11:56:02;;;;;;;161.00;41.95;;;8.80;99.90;;;;;;5019422;28;20468;-74
2022/11/12 11:58:45;;;;;;;160.55;41.15;;;8.90;99.90;;;;;;5095440;28;20400;-75
2022/11/12 12:01:31;;;;;;;203.52;42.10;;;8.90;99.90;;;;;;5094406;28;20459;-76
2022/11/12 12:04:15;;;;;;;225.65;44.72;;;8.90;99.90;;;;;;5106225;28;20483;-75
2022/11/12 12:06:55;;;;;;;171.40;41.90;;;8.90;99.90;;;;;;5093248;28;20414;-75
2022/11/12 12:09:20;;;;;;;151.98;41.80;;;9.00;99.90;;;;;;5094126;28;20414;-75
2022/11/12 12:11:52;;;;;;;179.33;42.13;;;9.00;99.90;;;;;;5090748;28;21080;-76
2022/11/12 12:14:30;;;;;;;153.38;41.63;;;9.00;99.90;;;;;;5099461;28;20424;-77
2022/11/12 12:17:17;;;;;;;155.75;44.00;;;9.00;99.90;;;;;;5097212;28;20422;-77
2022/11/12 12:19:58;;;;;;;118.47;40.93;;;9.00;99.90;;;;;;5102367;28;20414;-77
2022/11/12 12:22:39;;;;;;;115.80;41.20;;;9.00;99.90;;;;;;5095540;28;20507;-74
2022/11/12 12:25:34;;;;;;;102.60;40.38;;;9.00;99.90;;;;;;5084271;28;20493;-76
2022/11/12 12:28:37;;;;;;;88.90;39.70;;;9.10;99.90;;;;;;5078256;28;20528;-77
2022/11/12 12:31:14;;;;;;;85.28;38.60;;;9.10;99.90;;;;;;5081691;28;20428;-77
2022/11/12 12:33:52;;;;;;;90.95;38.83;;;9.20;99.90;;;;;;5105661;28;20435;-77
2022/11/12 12:36:28;;;;;;;87.90;39.00;;;9.30;99.90;;;;;;5102476;28;20406;-77
2022/11/12 12:39:16;;;;;;;84.72;39.20;;;9.30;99.90;;;;;;5100533;28;20487;-77
2022/11/12 12:42:11;;;;;;;74.90;38.78;;;9.40;99.90;;;;;;5101498;28;20948;-76
2022/11/12 12:45:00;;;;;;;65.10;35.00;;;9.60;99.90;;;;;;5094252;28;20408;-76
2022/11/12 12:47:29;;;;;;;61.90;35.20;;;9.70;99.90;;;;;;5105096;28;20509;-76
2022/11/12 12:49:57;;;;;;;65.38;36.05;;;9.90;99.90;;;;;;5103538;28;20464;-77
2022/11/12 12:52:23;;;;;;;53.45;33.30;;;10.00;99.90;;;;;;5098529;28;20465;-76
2022/11/12 12:54:52;;;;;;;52.00;32.50;;;10.20;99.90;;;;;;5099695;28;20412;-76
2022/11/12 12:57:36;;;;;;;47.63;30.75;;;10.30;99.90;;;;;;5093316;28;20531;-77
2022/11/12 13:00:30;;;;;;;47.60;30.48;;;10.40;99.90;;;;;;5087879;28;20410;-76
2022/11/12 13:02:56;;;;;;;49.00;31.15;;;10.50;99.90;;;;;;5092106;28;20433;-76
2022/11/12 13:05:31;;;;;;;45.58;29.65;;;10.60;99.90;;;;;;5100887;28;20406;-76
2022/11/12 13:08:01;;;;;;;45.92;30.30;;;10.50;99.90;;;;;;5107362;28;20967;-75
2022/11/12 13:10:40;;;;;;;48.53;31.80;;;10.40;99.90;;;;;;5106826;28;20479;-76